createdAt,value
2022-08-27T00:00:45.654Z,100840.41
2022-08-27T00:03:12.210Z,100843.94
2022-08-27T00:05:39.469Z,100836.97
2022-08-27T00:08:06.797Z,100837.59
2022-08-27T00:10:33.985Z,100837.84
2022-08-27T00:13:00.956Z,100834.06
2022-08-27T00:15:28.031Z,100824.47
2022-08-27T00:17:54.467Z,100832.47
2022-08-27T00:20:22.898Z,100830.00
2022-08-27T00:22:49.804Z,100827.50
2022-08-27T00:25:16.322Z,100823.78
2022-08-27T00:27:42.876Z,100826.81
2022-08-27T00:30:12.895Z,100826.34
2022-08-27T00:32:40.402Z,100815.81
2022-08-27T00:35:07.719Z,100823.72
2022-08-27T00:37:34.157Z,100818.00
2022-08-27T00:40:00.861Z,100810.16
2022-08-27T00:42:27.304Z,100821.78
2022-08-27T00:44:57.482Z,100822.97
2022-08-27T00:47:25.225Z,100818.97
2022-08-27T00:49:58.909Z,100821.69
2022-08-27T00:52:41.938Z,100824.56
2022-08-27T00:55:12.529Z,100825.69
2022-08-27T00:57:41.173Z,100836.09
2022-08-27T01:00:11.633Z,100831.44
2022-08-27T01:02:38.073Z,100832.03
2022-08-27T01:05:09.204Z,100826.47
2022-08-27T01:07:38.777Z,100831.38
2022-08-27T01:10:09.124Z,100832.00
2022-08-27T01:12:36.492Z,100827.00
2022-08-27T01:15:07.751Z,100827.19
2022-08-27T01:17:37.848Z,100827.34
2022-08-27T01:20:09.417Z,100823.63
2022-08-27T01:22:44.834Z,100831.00
2022-08-27T01:25:13.779Z,100828.31
2022-08-27T01:27:41.509Z,100829.25
2022-08-27T01:30:10.830Z,100829.38
2022-08-27T01:32:38.325Z,100829.78
2022-08-27T01:35:07.520Z,100824.44
2022-08-27T01:37:34.855Z,100824.72
2022-08-27T01:40:02.056Z,100834.56
2022-08-27T01:42:32.460Z,100825.25
2022-08-27T01:45:05.642Z,100827.69
2022-08-27T01:47:32.604Z,100834.22
2022-08-27T01:49:59.292Z,100829.38
2022-08-27T01:52:27.959Z,100826.25
2022-08-27T01:54:54.404Z,100826.31
2022-08-27T01:57:25.721Z,100827.31
2022-08-27T01:59:52.559Z,100825.47
2022-08-27T02:02:19.065Z,100831.06
2022-08-27T02:04:45.512Z,100829.25
2022-08-27T02:07:12.031Z,100831.06
2022-08-27T02:09:38.464Z,100836.72
2022-08-27T02:12:05.536Z,100827.00
2022-08-27T02:14:31.948Z,100823.56
2022-08-27T02:16:58.429Z,100830.06
2022-08-27T02:19:24.883Z,100834.06
2022-08-27T02:21:52.520Z,100834.28
2022-08-27T02:24:19.109Z,100834.34
2022-08-27T02:26:45.896Z,100823.56
2022-08-27T02:29:12.420Z,100828.81
2022-08-27T02:31:38.934Z,100824.22
2022-08-27T02:34:05.473Z,100828.53
2022-08-27T02:36:31.872Z,100831.81
2022-08-27T02:38:58.241Z,100833.31
2022-08-27T02:41:24.748Z,100835.94
2022-08-27T02:43:51.141Z,100837.69
2022-08-27T02:46:17.944Z,100837.44
2022-08-27T02:48:44.781Z,100839.06
2022-08-27T02:51:11.290Z,100835.53
2022-08-27T02:53:37.967Z,100836.09
2022-08-27T02:56:06.231Z,100839.78
2022-08-27T02:58:33.599Z,100838.84
2022-08-27T03:01:01.665Z,100840.97
2022-08-27T03:03:29.477Z,100841.03
2022-08-27T03:05:58.063Z,100841.72
2022-08-27T03:08:26.484Z,100838.25
2022-08-27T03:10:55.869Z,100831.53
2022-08-27T03:13:23.291Z,100832.66
2022-08-27T03:15:49.857Z,100835.41
2022-08-27T03:18:18.353Z,100843.63
2022-08-27T03:20:47.673Z,100833.44
2022-08-27T03:23:14.680Z,100827.94
2022-08-27T03:25:51.458Z,100838.25
2022-08-27T03:28:23.881Z,100834.22
2022-08-27T03:30:52.962Z,100839.16
2022-08-27T03:33:20.853Z,100842.66
2022-08-27T03:35:51.728Z,100840.03
2022-08-27T03:38:18.830Z,100837.94
2022-08-27T03:40:45.313Z,100838.84
2022-08-27T03:43:13.413Z,100841.69
2022-08-27T03:45:57.083Z,100847.19
2022-08-27T03:48:29.208Z,100841.81
2022-08-27T03:50:55.850Z,100845.38
2022-08-27T03:53:22.305Z,100843.25
2022-08-27T03:55:49.390Z,100846.34
2022-08-27T03:58:16.781Z,100848.16
2022-08-27T04:00:43.477Z,100842.75
2022-08-27T04:03:13.432Z,100843.06
2022-08-27T04:05:40.508Z,100846.19
2022-08-27T04:08:09.649Z,100842.59
2022-08-27T04:10:39.813Z,100847.84
2022-08-27T04:13:06.217Z,100847.84
2022-08-27T04:15:32.636Z,100846.78
2022-08-27T04:17:59.058Z,100846.41
2022-08-27T04:20:35.016Z,100846.44
2022-08-27T04:23:02.428Z,100851.06
2022-08-27T04:25:29.363Z,100854.56
2022-08-27T04:27:55.923Z,100853.66
2022-08-27T04:30:22.449Z,100849.72
2022-08-27T04:32:49.029Z,100856.50
2022-08-27T04:35:15.466Z,100849.72
2022-08-27T04:37:42.183Z,100859.66
2022-08-27T04:40:09.270Z,100856.88
2022-08-27T04:42:35.719Z,100860.38
2022-08-27T04:45:02.930Z,100859.13
2022-08-27T04:47:30.959Z,100857.16
2022-08-27T04:50:00.210Z,100859.13
2022-08-27T04:52:28.261Z,100857.38
2022-08-27T04:54:55.125Z,100860.38
2022-08-27T04:57:21.705Z,100850.06
2022-08-27T04:59:48.373Z,100849.09
2022-08-27T05:02:14.826Z,100851.47
2022-08-27T05:04:41.432Z,100845.81
2022-08-27T05:07:09.625Z,100849.31
2022-08-27T05:09:36.600Z,100847.75
2022-08-27T05:12:03.602Z,100849.03
2022-08-27T05:14:30.416Z,100849.78
2022-08-27T05:16:58.383Z,100848.44
2022-08-27T05:19:24.801Z,100847.22
2022-08-27T05:21:53.013Z,100853.00
2022-08-27T05:24:19.796Z,100848.97
2022-08-27T05:26:46.331Z,100847.97
2022-08-27T05:29:13.976Z,100854.72
2022-08-27T05:31:41.513Z,100849.38
2022-08-27T05:34:11.415Z,100849.38
2022-08-27T05:36:47.708Z,100854.41
2022-08-27T05:39:15.556Z,100855.53
2022-08-27T05:41:42.095Z,100863.25
2022-08-27T05:44:39.177Z,100861.38
2022-08-27T05:46:56.286Z,100863.25
2022-08-27T05:49:22.745Z,100858.13
2022-08-27T05:51:49.178Z,100855.59
2022-08-27T05:54:19.168Z,100860.69
2022-08-27T05:56:46.561Z,100857.31
2022-08-27T05:59:31.552Z,100856.66
2022-08-27T06:02:02.050Z,100861.81
2022-08-27T06:04:28.462Z,100855.97
2022-08-27T06:06:54.893Z,100855.72
2022-08-27T06:09:25.875Z,100858.81
2022-08-27T06:11:57.280Z,100859.78
2022-08-27T06:14:23.949Z,100867.13
2022-08-27T06:16:50.351Z,100861.66
2022-08-27T06:19:16.835Z,100865.63
2022-08-27T06:21:43.393Z,100862.22
2022-08-27T06:24:12.136Z,100864.50
2022-08-27T06:26:39.325Z,100866.44
2022-08-27T06:29:06.953Z,100865.53
2022-08-27T06:31:35.056Z,100867.63
2022-08-27T06:34:07.388Z,100871.75
2022-08-27T06:36:36.717Z,100870.25
2022-08-27T06:39:04.009Z,100870.22
2022-08-27T06:41:30.487Z,100865.78
2022-08-27T06:43:58.242Z,100860.63
2022-08-27T06:46:26.789Z,100868.41
2022-08-27T06:48:58.300Z,100866.66
2022-08-27T06:51:28.278Z,100864.16
2022-08-27T06:53:56.384Z,100865.03
2022-08-27T06:56:23.309Z,100861.81
2022-08-27T06:58:57.985Z,100858.84
2022-08-27T07:01:30.576Z,100859.53
2022-08-27T07:03:58.897Z,100855.78
2022-08-27T07:06:26.624Z,100856.00
2022-08-27T07:08:53.878Z,100853.31
2022-08-27T07:11:21.426Z,100857.31
2022-08-27T07:13:48.826Z,100857.28
2022-08-27T07:16:19.040Z,100865.25
2022-08-27T07:18:45.802Z,100854.84
2022-08-27T07:21:12.418Z,100854.16
2022-08-27T07:23:39.761Z,100852.19
2022-08-27T07:26:10.719Z,100853.03
2022-08-27T07:28:38.289Z,100850.00
2022-08-27T07:31:09.855Z,100849.31
2022-08-27T07:33:40.244Z,100850.69
2022-08-27T07:36:12.712Z,100860.06
2022-08-27T07:38:39.149Z,100860.34
2022-08-27T07:41:10.567Z,100864.22
2022-08-27T07:43:56.303Z,100861.72
2022-08-27T07:46:23.606Z,100863.78
2022-08-27T07:48:50.733Z,100859.63
2022-08-27T07:51:19.519Z,100871.38
2022-08-27T07:53:46.910Z,100863.00
2022-08-27T07:56:13.837Z,100862.59
2022-08-27T07:58:41.031Z,100864.09
2022-08-27T08:01:07.896Z,100871.75
2022-08-27T08:03:34.424Z,100861.78
2022-08-27T08:06:09.291Z,100864.50
2022-08-27T08:08:36.580Z,100872.25
2022-08-27T08:11:06.068Z,100875.81
2022-08-27T08:13:32.504Z,100878.44
2022-08-27T08:15:59.285Z,100878.06
2022-08-27T08:18:26.454Z,100877.94
2022-08-27T08:20:58.592Z,100886.38
2022-08-27T08:23:25.705Z,100878.50
2022-08-27T08:25:52.139Z,100873.31
2022-08-27T08:28:18.566Z,100882.75
2022-08-27T08:30:46.232Z,100880.13
2022-08-27T08:33:13.408Z,100880.69
2022-08-27T08:35:41.334Z,100885.50
2022-08-27T08:38:08.536Z,100875.56
2022-08-27T08:40:39.369Z,100873.56
2022-08-27T08:43:07.800Z,100885.22
2022-08-27T08:45:36.271Z,100878.81
2022-08-27T08:48:07.487Z,100889.69
2022-08-27T08:50:39.458Z,100884.25
2022-08-27T08:53:11.463Z,100892.53
2022-08-27T08:55:42.872Z,100887.97
2022-08-27T08:58:44.967Z,100886.56
2022-08-27T09:01:14.881Z,100884.91
2022-08-27T09:03:42.987Z,100885.91
2022-08-27T09:06:24.087Z,100883.94
2022-08-27T09:08:50.627Z,100881.69
2022-08-27T09:11:23.376Z,100883.34
2022-08-27T09:13:53.291Z,100879.38
2022-08-27T09:16:19.928Z,100886.69
2022-08-27T09:18:51.201Z,100888.03
2022-08-27T09:21:36.332Z,100882.78
2022-08-27T09:24:18.466Z,100886.03
2022-08-27T09:26:45.041Z,100888.75
2022-08-27T09:29:16.194Z,100883.06
2022-08-27T09:31:57.221Z,100885.78
2022-08-27T09:34:25.217Z,100881.31
2022-08-27T09:37:20.489Z,100892.66
2022-08-27T09:39:47.166Z,100888.31
2022-08-27T09:42:27.938Z,100896.06
2022-08-27T09:44:55.578Z,100900.13
2022-08-27T09:47:22.974Z,100893.88
2022-08-27T09:49:49.470Z,100892.59
2022-08-27T09:52:37.736Z,100890.94
2022-08-27T09:55:05.410Z,100891.22
2022-08-27T09:57:38.807Z,100887.88
2022-08-27T10:00:09.793Z,100881.50
2022-08-27T10:02:36.296Z,100884.38
2022-08-27T10:05:14.434Z,100887.97
2022-08-27T10:07:52.356Z,100883.47
2022-08-27T10:10:22.734Z,100882.50
2022-08-27T10:12:59.645Z,100876.25
2022-08-27T10:15:50.704Z,100887.72
2022-08-27T10:18:37.493Z,100883.06
2022-08-27T10:21:17.314Z,100883.59
2022-08-27T10:24:07.038Z,100889.00
2022-08-27T10:26:41.307Z,100885.34
2022-08-27T10:29:26.614Z,100886.41
2022-08-27T10:32:09.664Z,100880.34
2022-08-27T10:34:46.113Z,100882.47
2022-08-27T10:38:00.127Z,100888.56
2022-08-27T10:40:28.223Z,100884.53
2022-08-27T10:43:14.028Z,100877.50
2022-08-27T10:45:50.135Z,100874.69
2022-08-27T10:48:35.686Z,100880.53
2022-08-27T10:51:16.372Z,100874.19
2022-08-27T10:53:50.415Z,100881.75
2022-08-27T10:56:31.407Z,100875.81
2022-08-27T10:59:21.431Z,100883.03
2022-08-27T11:02:06.867Z,100879.03
2022-08-27T11:04:39.087Z,100880.78
2022-08-27T11:07:15.064Z,100876.53
2022-08-27T11:10:37.179Z,100878.69
2022-08-27T11:13:07.430Z,100878.25
2022-08-27T11:15:37.075Z,100879.50
2022-08-27T11:18:25.871Z,100875.59
2022-08-27T11:20:53.971Z,100875.09
2022-08-27T11:23:28.408Z,100878.19
2022-08-27T11:26:02.675Z,100880.72
2022-08-27T11:28:44.727Z,100878.59
2022-08-27T11:31:42.053Z,100867.91
2022-08-27T11:34:20.289Z,100871.56
2022-08-27T11:37:10.046Z,100871.44
2022-08-27T11:39:56.690Z,100871.50
2022-08-27T11:43:03.135Z,100876.03
2022-08-27T11:45:38.200Z,100872.94
2022-08-27T11:48:22.077Z,100873.72
2022-08-27T11:50:58.800Z,100880.53
2022-08-27T11:53:59.131Z,100878.69
2022-08-27T11:56:25.445Z,100871.44
2022-08-27T11:58:52.635Z,100876.59
2022-08-27T12:01:31.597Z,100882.44
2022-08-27T12:04:08.022Z,100876.72
2022-08-27T12:06:45.846Z,100881.41
2022-08-27T12:09:19.315Z,100878.56
2022-08-27T12:12:01.368Z,100872.97
2022-08-27T12:14:57.976Z,100880.28
2022-08-27T12:17:38.372Z,100889.78
2022-08-27T12:20:29.686Z,100887.78
2022-08-27T12:23:33.057Z,100891.25
2022-08-27T12:26:02.996Z,100881.47
2022-08-27T12:28:30.475Z,100881.13
2022-08-27T12:30:58.496Z,100877.78
2022-08-27T12:33:34.349Z,100882.34
2022-08-27T12:36:27.511Z,100881.50
2022-08-27T12:38:57.968Z,100877.56
2022-08-27T12:41:44.571Z,100875.78
2022-08-27T12:44:23.130Z,100878.88
2022-08-27T12:46:53.502Z,100878.00
2022-08-27T12:49:36.926Z,100875.34
2022-08-27T12:52:17.573Z,100874.47
2022-08-27T12:55:10.920Z,100867.31
2022-08-27T12:57:46.710Z,100869.47
2022-08-27T13:00:26.328Z,100868.63
2022-08-27T13:03:23.981Z,100869.34
2022-08-27T13:05:51.031Z,100872.16
2022-08-27T13:08:22.557Z,100866.56
2022-08-27T13:10:50.176Z,100873.50
2022-08-27T13:13:19.689Z,100880.88
2022-08-27T13:15:58.520Z,100873.97
2022-08-27T13:18:29.567Z,100865.81
2022-08-27T13:21:16.978Z,100863.56
2022-08-27T13:23:45.350Z,100868.69
2022-08-27T13:26:12.411Z,100862.69
2022-08-27T13:28:41.661Z,100867.50
2022-08-27T13:31:10.123Z,100863.75
2022-08-27T13:33:37.511Z,100860.53
2022-08-27T13:36:06.561Z,100860.81
2022-08-27T13:38:35.976Z,100862.66
2022-08-27T13:41:11.972Z,100854.19
2022-08-27T13:43:42.276Z,100859.53
2022-08-27T13:46:20.557Z,100851.44
2022-08-27T13:48:49.900Z,100852.94
2022-08-27T13:51:33.437Z,100857.78
2022-08-27T13:54:14.336Z,100863.13
2022-08-27T13:56:57.367Z,100868.59
2022-08-27T13:59:27.006Z,100860.63
2022-08-27T14:02:10.903Z,100863.22
2022-08-27T14:04:39.351Z,100855.53
2022-08-27T14:07:31.552Z,100857.44
2022-08-27T14:10:03.683Z,100863.66
2022-08-27T14:12:39.109Z,100859.81
2022-08-27T14:15:40.989Z,100858.06
2022-08-27T14:18:55.476Z,100853.13
2022-08-27T14:21:19.204Z,100859.06
2022-08-27T14:23:45.708Z,100863.19
2022-08-27T14:26:13.365Z,100856.13
2022-08-27T14:28:39.787Z,100850.84
2022-08-27T14:31:06.318Z,100851.06
2022-08-27T14:33:32.758Z,100850.72
2022-08-27T14:35:59.678Z,100852.03
2022-08-27T14:38:33.502Z,100851.31
2022-08-27T14:40:59.962Z,100843.56
2022-08-27T14:43:26.771Z,100850.69
2022-08-27T14:45:53.404Z,100842.91
2022-08-27T14:48:28.709Z,100843.72
2022-08-27T14:50:56.614Z,100843.97
2022-08-27T14:53:23.069Z,100847.09
2022-08-27T14:55:51.356Z,100844.34
2022-08-27T14:58:18.453Z,100846.81
2022-08-27T15:00:44.859Z,100841.50
2022-08-27T15:03:11.582Z,100842.47
2022-08-27T15:05:38.073Z,100844.06
2022-08-27T15:08:04.918Z,100851.94
2022-08-27T15:10:32.140Z,100849.34
2022-08-27T15:12:58.919Z,100855.91
2022-08-27T15:15:25.423Z,100851.66
2022-08-27T15:17:51.853Z,100860.19
2022-08-27T15:20:19.798Z,100863.31
2022-08-27T15:22:48.199Z,100854.16
2022-08-27T15:25:15.562Z,100855.97
2022-08-27T15:27:42.013Z,100852.56
2022-08-27T15:30:12.043Z,100855.66
2022-08-27T15:32:44.107Z,100859.09
2022-08-27T15:35:13.781Z,100856.72
2022-08-27T15:37:41.761Z,100850.38
2022-08-27T15:40:09.238Z,100851.38
2022-08-27T15:42:35.687Z,100850.81
2022-08-27T15:45:02.436Z,100851.41
2022-08-27T15:47:28.846Z,100856.63
2022-08-27T15:49:55.273Z,100859.19
2022-08-27T15:52:22.234Z,100856.56
2022-08-27T15:54:49.979Z,100857.44
2022-08-27T15:57:17.696Z,100864.94
2022-08-27T15:59:44.721Z,100860.28
2022-08-27T16:02:16.647Z,100853.13
2022-08-27T16:04:43.477Z,100858.91
2022-08-27T16:07:16.283Z,100860.69
2022-08-27T16:09:46.676Z,100861.59
2022-08-27T16:12:26.818Z,100862.00
2022-08-27T16:14:54.168Z,100852.25
2022-08-27T16:17:21.115Z,100861.69
2022-08-27T16:19:47.544Z,100859.06
2022-08-27T16:22:14.628Z,100861.63
2022-08-27T16:24:41.044Z,100858.03
2022-08-27T16:27:07.604Z,100854.97
2022-08-27T16:29:34.312Z,100860.28
2022-08-27T16:32:01.545Z,100859.97
2022-08-27T16:34:29.791Z,100856.13
2022-08-27T16:36:56.586Z,100853.19
2022-08-27T16:39:23.261Z,100852.56
2022-08-27T16:41:50.252Z,100849.97
2022-08-27T16:44:17.575Z,100846.91
2022-08-27T16:46:44.123Z,100853.34
2022-08-27T16:49:29.190Z,100854.19
2022-08-27T16:51:55.601Z,100852.44
2022-08-27T16:54:22.252Z,100851.69
2022-08-27T16:56:48.672Z,100850.03
2022-08-27T16:59:15.773Z,100854.88
2022-08-27T17:01:42.566Z,100856.50
2022-08-27T17:04:17.291Z,100847.38
2022-08-27T17:06:51.497Z,100855.34
2022-08-27T17:09:18.625Z,100854.59
2022-08-27T17:11:47.809Z,100857.66
2022-08-27T17:14:14.237Z,100861.34
2022-08-27T17:16:43.860Z,100861.34
2022-08-27T17:19:11.007Z,100865.78
2022-08-27T17:21:44.356Z,100861.00
2022-08-27T17:24:12.706Z,100868.19
2022-08-27T17:26:39.562Z,100861.25
2022-08-27T17:29:06.016Z,100860.13
2022-08-27T17:31:36.801Z,100860.16
2022-08-27T17:34:04.662Z,100858.31
2022-08-27T17:36:31.389Z,100853.84
2022-08-27T17:38:59.992Z,100865.63
2022-08-27T17:41:33.692Z,100866.16
2022-08-27T17:44:05.688Z,100866.66
2022-08-27T17:46:32.227Z,100864.16
2022-08-27T17:48:59.602Z,100870.31
2022-08-27T17:51:27.460Z,100868.69
2022-08-27T17:54:00.585Z,100872.38
2022-08-27T17:56:27.889Z,100876.34
2022-08-27T17:58:54.812Z,100878.81
2022-08-27T18:01:28.515Z,100871.28
2022-08-27T18:03:55.912Z,100881.81
2022-08-27T18:06:22.826Z,100882.69
2022-08-27T18:08:49.353Z,100889.50
2022-08-27T18:11:17.139Z,100888.91
2022-08-27T18:13:44.029Z,100895.69
2022-08-27T18:16:10.621Z,100893.03
2022-08-27T18:18:38.151Z,100896.56
2022-08-27T18:21:07.811Z,100896.31
2022-08-27T18:23:36.598Z,100895.13
2022-08-27T18:26:03.264Z,100903.00
2022-08-27T18:28:31.069Z,100898.88
2022-08-27T18:30:57.590Z,100901.69
2022-08-27T18:33:24.135Z,100906.16
2022-08-27T18:35:50.625Z,100908.28
2022-08-27T18:38:18.491Z,100912.34
2022-08-27T18:40:47.552Z,100910.53
2022-08-27T18:43:14.834Z,100902.75
2022-08-27T18:45:41.951Z,100917.38
2022-08-27T18:48:21.517Z,100922.19
2022-08-27T18:50:50.683Z,100913.09
2022-08-27T18:53:19.734Z,100910.16
2022-08-27T18:55:46.986Z,100908.78
2022-08-27T18:58:13.682Z,100913.63
2022-08-27T19:00:42.685Z,100913.72
2022-08-27T19:03:10.105Z,100916.59
2022-08-27T19:05:36.525Z,100907.41
2022-08-27T19:08:03.404Z,100911.59
2022-08-27T19:10:29.893Z,100915.22
2022-08-27T19:12:56.303Z,100915.75
2022-08-27T19:15:22.727Z,100916.97
2022-08-27T19:17:54.013Z,100922.38
2022-08-27T19:20:20.508Z,100922.34
2022-08-27T19:22:47.651Z,100922.59
2022-08-27T19:25:15.091Z,100930.63
2022-08-27T19:27:41.831Z,100928.88
2022-08-27T19:30:08.810Z,100931.63
2022-08-27T19:32:35.329Z,100936.84
2022-08-27T19:35:01.751Z,100937.91
2022-08-27T19:37:29.628Z,100934.75
2022-08-27T19:39:56.089Z,100940.06
2022-08-27T19:42:22.765Z,100933.09
2022-08-27T19:44:49.195Z,100936.88
2022-08-27T19:47:21.339Z,100939.50
2022-08-27T19:49:49.640Z,100940.00
2022-08-27T19:52:16.105Z,100937.16
2022-08-27T19:55:03.253Z,100937.97
2022-08-27T19:57:28.929Z,100937.22
2022-08-27T19:59:55.437Z,100943.16
2022-08-27T20:02:21.880Z,100943.03
2022-08-27T20:05:14.357Z,100941.75
2022-08-27T20:07:35.158Z,100939.78
2022-08-27T20:10:08.642Z,100944.38
2022-08-27T20:12:36.070Z,100942.69
2022-08-27T20:15:02.803Z,100942.75
2022-08-27T20:17:29.484Z,100933.09
2022-08-27T20:19:55.928Z,100936.81
2022-08-27T20:22:22.366Z,100938.25
2022-08-27T20:24:48.806Z,100938.97
2022-08-27T20:27:15.345Z,100939.41
2022-08-27T20:29:42.100Z,100938.38
2022-08-27T20:32:08.567Z,100941.16
2022-08-27T20:34:35.106Z,100938.41
2022-08-27T20:37:02.804Z,100942.63
2022-08-27T20:39:29.237Z,100946.91
2022-08-27T20:41:55.679Z,100940.56
2022-08-27T20:44:22.104Z,100940.72
2022-08-27T20:46:52.140Z,100948.75
2022-08-27T20:49:18.778Z,100951.56
2022-08-27T20:51:51.258Z,100951.97
2022-08-27T20:54:28.988Z,100954.47
2022-08-27T20:56:55.408Z,100956.22
2022-08-27T20:59:40.568Z,100964.00
2022-08-27T21:02:09.565Z,100968.63
2022-08-27T21:04:42.912Z,100972.84
2022-08-27T21:07:09.536Z,100966.00
2022-08-27T21:09:36.104Z,100978.59
2022-08-27T21:12:22.817Z,100983.91
2022-08-27T21:14:49.657Z,100978.44
2022-08-27T21:17:21.539Z,100976.22
2022-08-27T21:19:47.961Z,100976.41
2022-08-27T21:22:14.386Z,100984.34
2022-08-27T21:24:40.814Z,100985.31
2022-08-27T21:27:07.235Z,100979.84
2022-08-27T21:29:33.984Z,100987.25
2022-08-27T21:32:00.406Z,100983.88
2022-08-27T21:34:28.153Z,100988.41
2022-08-27T21:36:54.689Z,100996.75
2022-08-27T21:39:22.614Z,100989.81
2022-08-27T21:41:49.115Z,100994.28
2022-08-27T21:44:15.854Z,101003.88
2022-08-27T21:46:42.338Z,101002.28
2022-08-27T21:49:08.785Z,101010.09
2022-08-27T21:51:35.293Z,101007.34
2022-08-27T21:54:01.734Z,101012.59
2022-08-27T21:56:28.401Z,101013.59
2022-08-27T21:58:55.069Z,101014.50
2022-08-27T22:01:21.621Z,101015.53
2022-08-27T22:03:50.726Z,101011.94
2022-08-27T22:06:17.998Z,101008.44
2022-08-27T22:08:44.752Z,101016.63
2022-08-27T22:11:11.764Z,101019.78
2022-08-27T22:13:38.615Z,101019.91
2022-08-27T22:16:05.309Z,101017.59
2022-08-27T22:18:31.890Z,101022.03
2022-08-27T22:20:58.786Z,101022.28
2022-08-27T22:23:25.420Z,101028.19
2022-08-27T22:25:51.844Z,101024.59
2022-08-27T22:28:18.885Z,101020.28
2022-08-27T22:30:45.394Z,101028.75
2022-08-27T22:33:13.029Z,101028.06
2022-08-27T22:35:39.779Z,101028.22
2022-08-27T22:38:06.741Z,101027.03
2022-08-27T22:40:34.084Z,101029.72
2022-08-27T22:43:01.183Z,101026.38
2022-08-27T22:45:28.505Z,101024.31
2022-08-27T22:47:55.269Z,101026.13
2022-08-27T22:50:22.679Z,101027.41
2022-08-27T22:52:49.638Z,101024.94
2022-08-27T22:55:20.629Z,101025.50
2022-08-27T22:57:48.800Z,101029.50
2022-08-27T23:00:18.924Z,101031.97
2022-08-27T23:02:45.730Z,101033.91
2022-08-27T23:05:13.379Z,101033.78
2022-08-27T23:07:40.388Z,101036.19
2022-08-27T23:10:09.414Z,101033.88
2022-08-27T23:12:38.798Z,101042.31
2022-08-27T23:15:08.299Z,101031.47
2022-08-27T23:17:34.742Z,101035.56
2022-08-27T23:20:01.202Z,101029.88
2022-08-27T23:22:27.603Z,101035.69
2022-08-27T23:25:12.581Z,101039.13
2022-08-27T23:27:39.006Z,101031.41
2022-08-27T23:30:07.874Z,101030.22
2022-08-27T23:32:34.417Z,101034.41
2022-08-27T23:35:01.016Z,101032.97
2022-08-27T23:37:27.480Z,101034.03
2022-08-27T23:39:54.246Z,101035.44
2022-08-27T23:42:20.760Z,101031.81
2022-08-27T23:44:48.771Z,101035.56
2022-08-27T23:47:16.070Z,101037.22
2022-08-27T23:49:43.313Z,101035.75
2022-08-27T23:52:11.074Z,101039.66
2022-08-27T23:54:37.881Z,101042.63
2022-08-27T23:57:04.454Z,101031.00
2022-08-27T23:59:30.999Z,101038.78
